createdAt,value
2022-10-09T00:00:14.071Z,0.00
2022-10-09T00:01:14.043Z,0.00
2022-10-09T00:02:14.078Z,0.00
2022-10-09T00:03:13.995Z,0.00
2022-10-09T00:04:13.970Z,0.00
2022-10-09T00:05:14.022Z,0.00
2022-10-09T00:06:13.919Z,0.00
2022-10-09T00:07:13.928Z,0.00
2022-10-09T00:08:13.871Z,0.00
2022-10-09T00:09:13.845Z,0.00
2022-10-09T00:10:13.819Z,0.00
2022-10-09T00:11:13.796Z,0.00
2022-10-09T00:12:13.772Z,0.00
2022-10-09T00:13:13.749Z,0.00
2022-10-09T00:14:13.727Z,0.00
2022-10-09T00:15:13.697Z,0.00
2022-10-09T00:16:13.675Z,0.00
2022-10-09T00:17:13.649Z,0.00
2022-10-09T00:18:13.629Z,0.00
2022-10-09T00:19:13.597Z,0.00
2022-10-09T00:20:13.572Z,0.00
2022-10-09T00:21:13.551Z,0.00
2022-10-09T00:22:13.523Z,0.00
2022-10-09T00:23:13.518Z,0.00
2022-10-09T00:24:13.474Z,0.00
2022-10-09T00:25:13.450Z,0.00
2022-10-09T00:26:13.425Z,0.00
2022-10-09T00:27:13.397Z,0.00
2022-10-09T00:28:13.482Z,0.00
2022-10-09T00:29:13.354Z,0.00
2022-10-09T00:30:13.328Z,0.00
2022-10-09T00:31:13.407Z,0.00
2022-10-09T00:32:13.274Z,0.00
2022-10-09T00:33:13.248Z,0.00
2022-10-09T00:34:13.225Z,0.00
2022-10-09T00:35:13.200Z,0.00
2022-10-09T00:36:13.174Z,0.00
2022-10-09T00:37:13.157Z,0.00
2022-10-09T00:38:13.126Z,0.00
2022-10-09T00:39:13.254Z,0.00
2022-10-09T00:40:13.081Z,0.00
2022-10-09T00:41:13.056Z,0.00
2022-10-09T00:42:13.027Z,0.00
2022-10-09T00:43:12.999Z,0.00
2022-10-09T00:44:12.974Z,0.00
2022-10-09T00:45:12.950Z,0.00
2022-10-09T00:46:12.963Z,0.00
2022-10-09T00:47:12.905Z,0.00
2022-10-09T00:48:12.873Z,0.00
2022-10-09T00:49:12.849Z,0.00
2022-10-09T00:50:12.821Z,0.00
2022-10-09T00:51:12.802Z,0.00
2022-10-09T00:52:12.771Z,0.00
2022-10-09T00:53:12.752Z,0.00
2022-10-09T00:54:12.729Z,0.00
2022-10-09T00:55:12.719Z,0.00
2022-10-09T00:56:12.677Z,0.00
2022-10-09T00:57:12.648Z,0.00
2022-10-09T00:58:12.620Z,0.00
2022-10-09T00:59:12.611Z,0.00
2022-10-09T01:00:12.576Z,0.00
2022-10-09T01:01:12.642Z,0.00
2022-10-09T01:02:12.571Z,0.00
2022-10-09T01:03:12.496Z,0.00
2022-10-09T01:04:12.478Z,0.00
2022-10-09T01:05:12.446Z,0.00
2022-10-09T01:06:12.425Z,0.00
2022-10-09T01:07:12.404Z,0.00
2022-10-09T01:08:12.372Z,0.00
2022-10-09T01:09:12.349Z,0.00
2022-10-09T01:10:12.326Z,0.00
2022-10-09T01:11:12.323Z,0.00
2022-10-09T01:12:12.281Z,0.00
2022-10-09T01:13:12.252Z,0.00
2022-10-09T01:14:12.229Z,0.00
2022-10-09T01:15:12.201Z,0.00
2022-10-09T01:16:12.209Z,0.00
2022-10-09T01:17:12.151Z,0.00
2022-10-09T01:18:12.124Z,0.00
2022-10-09T01:19:12.102Z,0.00
2022-10-09T01:20:12.073Z,0.00
2022-10-09T01:21:12.054Z,0.00
2022-10-09T01:22:12.032Z,0.00
2022-10-09T01:23:12.000Z,0.00
2022-10-09T01:24:11.976Z,0.00
2022-10-09T01:25:11.956Z,0.00
2022-10-09T01:26:11.924Z,0.00
2022-10-09T01:27:11.924Z,0.00
2022-10-09T01:28:11.902Z,0.00
2022-10-09T01:29:11.851Z,0.00
2022-10-09T01:30:11.823Z,0.00
2022-10-09T01:31:11.926Z,0.00
2022-10-09T01:32:11.772Z,0.00
2022-10-09T01:33:11.746Z,0.00
2022-10-09T01:34:11.722Z,0.00
2022-10-09T01:35:11.697Z,0.00
2022-10-09T01:36:11.668Z,0.00
2022-10-09T01:37:11.643Z,0.00
2022-10-09T01:38:11.620Z,0.00
2022-10-09T01:39:11.596Z,0.00
2022-10-09T01:40:11.571Z,0.00
2022-10-09T01:41:11.545Z,0.00
2022-10-09T01:42:11.520Z,0.00
2022-10-09T01:43:11.523Z,0.00
2022-10-09T01:44:11.465Z,0.00
2022-10-09T01:45:11.453Z,0.00
2022-10-09T01:46:11.445Z,0.00
2022-10-09T01:47:11.393Z,0.00
2022-10-09T01:48:11.369Z,0.00
2022-10-09T01:49:11.348Z,0.00
2022-10-09T01:50:11.321Z,0.00
2022-10-09T01:51:11.293Z,0.00
2022-10-09T01:52:11.266Z,0.00
2022-10-09T01:53:11.248Z,0.00
2022-10-09T01:54:11.214Z,0.00
2022-10-09T01:55:11.197Z,0.00
2022-10-09T01:56:11.170Z,0.00
2022-10-09T01:57:11.144Z,0.00
2022-10-09T01:58:11.122Z,0.00
2022-10-09T01:59:15.485Z,0.00
2022-10-09T02:00:11.067Z,0.00
2022-10-09T02:01:11.125Z,0.00
2022-10-09T02:02:11.101Z,0.00
2022-10-09T02:03:10.991Z,0.00
2022-10-09T02:04:10.969Z,0.00
2022-10-09T02:05:10.943Z,0.00
2022-10-09T02:06:10.913Z,0.00
2022-10-09T02:07:10.895Z,0.00
2022-10-09T02:08:10.862Z,0.00
2022-10-09T02:09:10.844Z,0.00
2022-10-09T02:10:10.818Z,0.00
2022-10-09T02:11:10.796Z,0.00
2022-10-09T02:12:10.764Z,0.00
2022-10-09T02:13:10.740Z,0.00
2022-10-09T02:14:10.712Z,0.00
2022-10-09T02:15:10.708Z,0.00
2022-10-09T02:16:10.773Z,0.00
2022-10-09T02:17:10.638Z,0.00
2022-10-09T02:18:10.618Z,0.00
2022-10-09T02:19:10.591Z,0.00
2022-10-09T02:20:10.566Z,0.00
2022-10-09T02:21:10.535Z,0.00
2022-10-09T02:22:10.508Z,0.00
2022-10-09T02:23:10.483Z,0.00
2022-10-09T02:24:10.458Z,0.00
2022-10-09T02:25:10.434Z,0.00
2022-10-09T02:26:10.407Z,0.00
2022-10-09T02:27:10.387Z,0.00
2022-10-09T02:28:10.405Z,0.00
2022-10-09T02:29:10.335Z,0.00
2022-10-09T02:30:10.305Z,0.00
2022-10-09T02:31:10.429Z,0.00
2022-10-09T02:32:10.262Z,0.00
2022-10-09T02:33:10.235Z,0.00
2022-10-09T02:34:10.215Z,0.00
2022-10-09T02:35:10.181Z,0.00
2022-10-09T02:36:10.158Z,0.00
2022-10-09T02:37:10.131Z,0.00
2022-10-09T02:38:10.106Z,0.00
2022-10-09T02:39:10.082Z,0.00
2022-10-09T02:40:11.000Z,0.00
2022-10-09T02:41:10.031Z,0.00
2022-10-09T02:42:10.005Z,0.00
2022-10-09T02:43:09.979Z,0.00
2022-10-09T02:44:09.956Z,0.00
2022-10-09T02:45:09.932Z,0.00
2022-10-09T02:46:09.927Z,0.00
2022-10-09T02:47:09.901Z,0.00
2022-10-09T02:48:09.854Z,0.00
2022-10-09T02:49:09.829Z,0.00
2022-10-09T02:50:09.806Z,0.00
2022-10-09T02:51:09.776Z,0.00
2022-10-09T02:52:09.753Z,0.00
2022-10-09T02:53:09.728Z,0.00
2022-10-09T02:54:09.700Z,0.00
2022-10-09T02:55:09.677Z,0.00
2022-10-09T02:56:09.650Z,0.00
2022-10-09T02:57:09.631Z,0.00
2022-10-09T02:58:09.601Z,0.00
2022-10-09T02:59:09.575Z,0.00
2022-10-09T03:00:09.557Z,0.00
2022-10-09T03:01:09.539Z,0.00
2022-10-09T03:02:09.614Z,0.00
2022-10-09T03:03:09.672Z,0.00
2022-10-09T03:04:09.448Z,0.00
2022-10-09T03:05:09.423Z,0.00
2022-10-09T03:06:09.441Z,0.00
2022-10-09T03:07:09.373Z,0.00
2022-10-09T03:08:09.344Z,0.00
2022-10-09T03:09:09.327Z,0.00
2022-10-09T03:10:09.297Z,0.00
2022-10-09T03:11:09.271Z,0.00
2022-10-09T03:12:09.246Z,0.00
2022-10-09T03:13:09.222Z,0.00
2022-10-09T03:14:09.195Z,0.00
2022-10-09T03:15:09.171Z,0.00
2022-10-09T03:16:09.209Z,0.00
2022-10-09T03:17:09.120Z,0.00
2022-10-09T03:18:09.091Z,0.00
2022-10-09T03:19:09.088Z,0.00
2022-10-09T03:20:09.058Z,0.00
2022-10-09T03:21:09.017Z,0.00
2022-10-09T03:22:08.991Z,0.00
2022-10-09T03:23:08.966Z,0.00
2022-10-09T03:24:08.949Z,0.00
2022-10-09T03:25:08.928Z,0.00
2022-10-09T03:26:08.892Z,0.00
2022-10-09T03:27:08.869Z,0.00
2022-10-09T03:28:08.886Z,0.00
2022-10-09T03:29:08.812Z,0.00
2022-10-09T03:30:08.797Z,0.00
2022-10-09T03:31:08.833Z,0.00
2022-10-09T03:32:08.813Z,0.00
2022-10-09T03:33:08.714Z,0.00
2022-10-09T03:34:08.683Z,0.00
2022-10-09T03:35:08.802Z,0.00
2022-10-09T03:36:08.635Z,0.00
2022-10-09T03:37:08.613Z,0.00
2022-10-09T03:38:08.584Z,0.00
2022-10-09T03:39:08.557Z,0.00
2022-10-09T03:40:08.529Z,0.00
2022-10-09T03:41:08.508Z,0.00
2022-10-09T03:42:08.481Z,0.00
2022-10-09T03:43:08.464Z,0.00
2022-10-09T03:44:08.436Z,0.00
2022-10-09T03:45:08.416Z,0.00
2022-10-09T03:46:08.456Z,0.00
2022-10-09T03:47:08.359Z,0.00
2022-10-09T03:48:08.329Z,0.00
2022-10-09T03:49:08.305Z,0.00
2022-10-09T03:50:08.284Z,0.00
2022-10-09T03:51:08.274Z,0.00
2022-10-09T03:52:08.230Z,0.00
2022-10-09T03:53:08.208Z,0.00
2022-10-09T03:54:08.185Z,0.00
2022-10-09T03:55:08.148Z,0.00
2022-10-09T03:56:08.124Z,0.00
2022-10-09T03:57:08.098Z,0.00
2022-10-09T03:58:08.072Z,0.00
2022-10-09T03:59:08.045Z,0.00
2022-10-09T04:00:08.020Z,0.00
2022-10-09T04:01:08.233Z,0.00
2022-10-09T04:02:08.012Z,0.00
2022-10-09T04:03:07.949Z,0.00
2022-10-09T04:04:07.922Z,0.00
2022-10-09T04:05:07.894Z,0.00
2022-10-09T04:06:07.868Z,0.00
2022-10-09T04:07:07.868Z,0.00
2022-10-09T04:08:07.815Z,0.00
2022-10-09T04:09:07.798Z,0.00
2022-10-09T04:10:07.769Z,0.00
2022-10-09T04:11:07.741Z,0.00
2022-10-09T04:12:07.715Z,0.00
2022-10-09T04:13:07.695Z,0.00
2022-10-09T04:14:07.660Z,0.00
2022-10-09T04:15:07.644Z,0.00
2022-10-09T04:16:07.650Z,0.00
2022-10-09T04:17:07.587Z,0.00
2022-10-09T04:18:07.566Z,0.00
2022-10-09T04:19:07.541Z,0.00
2022-10-09T04:20:07.511Z,0.00
2022-10-09T04:21:07.488Z,0.00
2022-10-09T04:22:07.459Z,0.00
2022-10-09T04:23:07.458Z,0.00
2022-10-09T04:24:07.408Z,0.00
2022-10-09T04:25:07.396Z,0.00
2022-10-09T04:26:07.359Z,0.00
2022-10-09T04:27:07.336Z,0.00
2022-10-09T04:28:07.393Z,0.00
2022-10-09T04:29:07.279Z,0.00
2022-10-09T04:30:07.256Z,0.00
2022-10-09T04:31:07.311Z,0.00
2022-10-09T04:32:07.202Z,0.00
2022-10-09T04:33:12.547Z,0.00
2022-10-09T04:34:07.152Z,0.00
2022-10-09T04:35:07.127Z,0.00
2022-10-09T04:36:07.106Z,0.00
2022-10-09T04:37:07.079Z,0.00
2022-10-09T04:38:07.049Z,0.00
2022-10-09T04:39:07.047Z,0.00
2022-10-09T04:40:06.996Z,0.00
2022-10-09T04:41:06.977Z,0.00
2022-10-09T04:42:06.949Z,0.00
2022-10-09T04:43:06.921Z,0.00
2022-10-09T04:44:06.898Z,0.00
2022-10-09T04:45:06.881Z,0.00
2022-10-09T04:46:06.938Z,0.00
2022-10-09T04:47:11.163Z,0.00
2022-10-09T04:48:06.794Z,0.00
2022-10-09T04:49:06.766Z,0.00
2022-10-09T04:50:06.743Z,0.00
2022-10-09T04:51:06.715Z,0.00
2022-10-09T04:52:06.694Z,0.00
2022-10-09T04:53:06.665Z,0.00
2022-10-09T04:54:06.640Z,0.00
2022-10-09T04:55:06.632Z,0.00
2022-10-09T04:56:06.591Z,0.00
2022-10-09T04:57:06.565Z,0.00
2022-10-09T04:58:06.536Z,0.00
2022-10-09T04:59:06.514Z,0.00
2022-10-09T05:00:06.487Z,0.00
2022-10-09T05:01:06.527Z,0.00
2022-10-09T05:02:06.503Z,0.00
2022-10-09T05:03:06.407Z,0.00
2022-10-09T05:04:06.380Z,0.00
2022-10-09T05:05:06.354Z,0.00
2022-10-09T05:06:06.331Z,0.00
2022-10-09T05:07:06.304Z,0.00
2022-10-09T05:08:06.278Z,0.00
2022-10-09T05:09:06.255Z,0.00
2022-10-09T05:10:06.231Z,0.00
2022-10-09T05:11:06.223Z,0.00
2022-10-09T05:12:06.176Z,0.00
2022-10-09T05:13:06.158Z,0.00
2022-10-09T05:14:06.132Z,0.00
2022-10-09T05:15:06.101Z,0.00
2022-10-09T05:16:06.113Z,0.00
2022-10-09T05:17:14.278Z,0.00
2022-10-09T05:18:06.026Z,0.00
2022-10-09T05:19:05.999Z,0.00
2022-10-09T05:20:05.969Z,0.00
2022-10-09T05:21:05.944Z,0.00
2022-10-09T05:22:05.921Z,0.00
2022-10-09T05:23:05.891Z,0.00
2022-10-09T05:24:10.127Z,4.00
2022-10-09T05:25:05.851Z,0.00
2022-10-09T05:26:05.820Z,4.00
2022-10-09T05:27:05.936Z,0.00
2022-10-09T05:28:05.787Z,4.00
2022-10-09T05:29:05.737Z,4.00
2022-10-09T05:30:05.712Z,0.00
2022-10-09T05:31:05.685Z,4.00
2022-10-09T05:32:05.728Z,4.00
2022-10-09T05:33:05.634Z,4.00
2022-10-09T05:34:05.611Z,4.00
2022-10-09T05:35:05.582Z,8.00
2022-10-09T05:36:05.560Z,8.00
2022-10-09T05:37:05.535Z,4.00
2022-10-09T05:38:05.504Z,4.00
2022-10-09T05:39:05.484Z,8.00
2022-10-09T05:40:05.455Z,8.00
2022-10-09T05:41:05.429Z,12.00
2022-10-09T05:42:05.399Z,12.00
2022-10-09T05:43:05.392Z,12.00
2022-10-09T05:44:05.353Z,12.00
2022-10-09T05:45:05.324Z,16.00
2022-10-09T05:46:05.353Z,16.00
2022-10-09T05:47:05.271Z,16.00
2022-10-09T05:48:05.251Z,20.00
2022-10-09T05:49:05.234Z,20.00
2022-10-09T05:50:05.223Z,24.00
2022-10-09T05:51:05.171Z,20.00
2022-10-09T05:52:05.146Z,24.00
2022-10-09T05:53:05.122Z,28.00
2022-10-09T05:54:05.094Z,28.00
2022-10-09T05:55:05.065Z,32.00
2022-10-09T05:56:05.038Z,32.00
2022-10-09T05:57:05.016Z,32.00
2022-10-09T05:58:04.991Z,36.00
2022-10-09T05:59:04.981Z,40.00
2022-10-09T06:00:04.942Z,40.00
2022-10-09T06:01:05.024Z,40.00
2022-10-09T06:02:04.940Z,44.00
2022-10-09T06:03:04.860Z,48.00
2022-10-09T06:04:04.834Z,44.00
2022-10-09T06:05:04.810Z,48.00
2022-10-09T06:06:04.785Z,52.00
2022-10-09T06:07:04.752Z,52.00
2022-10-09T06:08:04.737Z,56.00
2022-10-09T06:09:04.706Z,56.00
2022-10-09T06:10:04.681Z,56.00
2022-10-09T06:11:04.653Z,56.00
2022-10-09T06:12:04.627Z,60.00
2022-10-09T06:13:04.616Z,64.00
2022-10-09T06:14:04.575Z,64.00
2022-10-09T06:15:04.569Z,68.00
2022-10-09T06:16:04.523Z,72.00
2022-10-09T06:17:04.598Z,72.00
2022-10-09T06:18:04.478Z,72.00
2022-10-09T06:19:04.450Z,72.00
2022-10-09T06:20:04.424Z,76.00
2022-10-09T06:21:04.397Z,76.00
2022-10-09T06:22:04.365Z,80.00
2022-10-09T06:23:04.341Z,76.00
2022-10-09T06:24:04.319Z,80.00
2022-10-09T06:25:04.290Z,80.00
2022-10-09T06:26:04.264Z,80.00
2022-10-09T06:27:04.238Z,80.00
2022-10-09T06:28:04.245Z,80.00
2022-10-09T06:29:04.189Z,80.00
2022-10-09T06:30:04.167Z,84.00
2022-10-09T06:31:04.327Z,84.00
2022-10-09T06:32:04.118Z,88.00
2022-10-09T06:33:04.088Z,88.00
2022-10-09T06:34:04.063Z,84.00
2022-10-09T06:35:04.037Z,88.00
2022-10-09T06:36:10.071Z,96.00
2022-10-09T06:37:03.983Z,100.00
2022-10-09T06:38:03.958Z,100.00
2022-10-09T06:39:03.934Z,100.00
2022-10-09T06:40:03.910Z,100.00
2022-10-09T06:41:03.881Z,104.00
2022-10-09T06:42:03.855Z,104.00
2022-10-09T06:43:03.834Z,104.00
2022-10-09T06:44:03.801Z,108.00
2022-10-09T06:45:03.773Z,104.00
2022-10-09T06:46:03.820Z,108.00
2022-10-09T06:47:03.750Z,108.00
2022-10-09T06:48:03.708Z,112.00
2022-10-09T06:49:03.672Z,116.00
2022-10-09T06:50:03.652Z,120.00
2022-10-09T06:51:03.626Z,120.00
2022-10-09T06:52:03.594Z,120.00
2022-10-09T06:53:03.573Z,128.00
2022-10-09T06:54:03.546Z,128.00
2022-10-09T06:55:03.520Z,132.00
2022-10-09T06:56:03.498Z,140.00
2022-10-09T06:57:03.473Z,144.00
2022-10-09T06:58:03.443Z,148.00
2022-10-09T06:59:03.419Z,152.00
2022-10-09T07:00:03.393Z,160.00
2022-10-09T07:01:03.410Z,164.00
2022-10-09T07:02:03.505Z,168.00
2022-10-09T07:03:03.381Z,172.00
2022-10-09T07:04:03.285Z,180.00
2022-10-09T07:05:03.265Z,188.00
2022-10-09T07:06:03.238Z,200.00
2022-10-09T07:07:03.209Z,204.00
2022-10-09T07:08:03.191Z,216.00
2022-10-09T07:09:03.156Z,228.00
2022-10-09T07:10:03.140Z,240.00
2022-10-09T07:11:03.108Z,248.00
2022-10-09T07:12:03.083Z,256.00
2022-10-09T07:13:03.059Z,264.00
2022-10-09T07:14:03.032Z,276.00
2022-10-09T07:15:03.004Z,288.00
2022-10-09T07:16:05.034Z,304.00
2022-10-09T07:17:02.954Z,316.00
2022-10-09T07:18:02.928Z,328.00
2022-10-09T07:19:02.922Z,336.00
2022-10-09T07:20:02.879Z,344.00
2022-10-09T07:21:02.850Z,356.00
2022-10-09T07:22:02.830Z,364.00
2022-10-09T07:23:02.804Z,368.00
2022-10-09T07:24:02.777Z,372.00
2022-10-09T07:25:02.760Z,372.00
2022-10-09T07:26:02.729Z,384.00
2022-10-09T07:27:02.705Z,392.00
2022-10-09T07:28:02.732Z,404.00
2022-10-09T07:29:02.652Z,408.00
2022-10-09T07:30:02.625Z,412.00
2022-10-09T07:31:02.622Z,420.00
2022-10-09T07:32:05.782Z,420.00
2022-10-09T07:33:02.545Z,432.00
2022-10-09T07:34:02.522Z,436.00
2022-10-09T07:35:02.517Z,444.00
2022-10-09T07:36:02.476Z,444.00
2022-10-09T07:37:02.445Z,468.00
2022-10-09T07:38:02.422Z,520.00
2022-10-09T07:39:02.395Z,536.00
2022-10-09T07:40:02.373Z,548.00
2022-10-09T07:41:02.344Z,556.00
2022-10-09T07:42:02.323Z,568.00
2022-10-09T07:43:02.301Z,576.00
2022-10-09T07:44:02.274Z,588.00
2022-10-09T07:45:02.251Z,600.00
2022-10-09T07:46:02.297Z,600.00
2022-10-09T07:47:02.193Z,604.00
2022-10-09T07:48:02.202Z,600.00
2022-10-09T07:49:02.163Z,588.00
2022-10-09T07:50:02.118Z,544.00
2022-10-09T07:51:02.113Z,476.00
2022-10-09T07:52:02.069Z,476.00
2022-10-09T07:53:02.038Z,492.00
2022-10-09T07:54:02.182Z,476.00
2022-10-09T07:55:01.993Z,460.00
2022-10-09T07:56:01.970Z,444.00
2022-10-09T07:57:01.943Z,428.00
2022-10-09T07:58:01.915Z,420.00
2022-10-09T07:59:01.897Z,412.00
2022-10-09T08:00:01.874Z,424.00
2022-10-09T08:01:01.866Z,456.00
2022-10-09T08:02:01.865Z,476.00
2022-10-09T08:03:01.844Z,484.00
2022-10-09T08:04:01.766Z,492.00
2022-10-09T08:05:01.743Z,496.00
2022-10-09T08:06:01.718Z,500.00
2022-10-09T08:07:01.711Z,500.00
2022-10-09T08:08:01.667Z,504.00
2022-10-09T08:09:01.645Z,500.00
2022-10-09T08:10:01.619Z,488.00
2022-10-09T08:11:01.598Z,452.00
2022-10-09T08:12:01.571Z,428.00
2022-10-09T08:13:01.549Z,488.00
2022-10-09T08:14:01.518Z,508.00
2022-10-09T08:15:01.492Z,508.00
2022-10-09T08:16:01.532Z,508.00
2022-10-09T08:17:01.445Z,512.00
2022-10-09T08:18:01.419Z,508.00
2022-10-09T08:19:01.395Z,500.00
2022-10-09T08:20:01.367Z,500.00
2022-10-09T08:21:01.342Z,500.00
2022-10-09T08:22:03.633Z,492.00
2022-10-09T08:23:01.312Z,492.00
2022-10-09T08:24:01.273Z,500.00
2022-10-09T08:25:01.245Z,492.00
2022-10-09T08:26:01.223Z,496.00
2022-10-09T08:27:01.198Z,500.00
2022-10-09T08:28:01.179Z,504.00
2022-10-09T08:29:01.152Z,512.00
2022-10-09T08:30:01.127Z,516.00
2022-10-09T08:31:01.158Z,516.00
2022-10-09T08:32:01.073Z,520.00
2022-10-09T08:33:01.045Z,520.00
2022-10-09T08:34:01.019Z,524.00
2022-10-09T08:35:01.001Z,528.00
2022-10-09T08:36:00.967Z,528.00
2022-10-09T08:37:00.948Z,516.00
2022-10-09T08:38:00.918Z,504.00
2022-10-09T08:39:00.919Z,544.00
2022-10-09T08:40:00.873Z,544.00
2022-10-09T08:41:00.851Z,548.00
2022-10-09T08:42:00.826Z,548.00
2022-10-09T08:43:00.799Z,552.00
2022-10-09T08:44:00.771Z,552.00
2022-10-09T08:45:00.746Z,552.00
2022-10-09T08:46:00.759Z,556.00
2022-10-09T08:47:00.699Z,576.00
2022-10-09T08:48:00.674Z,580.00
2022-10-09T08:49:00.647Z,592.00
2022-10-09T08:50:00.625Z,584.00
2022-10-09T08:51:00.598Z,588.00
2022-10-09T08:52:00.578Z,596.00
2022-10-09T08:53:00.553Z,596.00
2022-10-09T08:54:00.527Z,596.00
2022-10-09T08:55:00.522Z,604.00
2022-10-09T08:56:00.486Z,600.00
2022-10-09T08:57:00.453Z,580.00
2022-10-09T08:58:00.438Z,580.00
2022-10-09T08:59:00.406Z,580.00
2022-10-09T09:00:00.400Z,596.00
2022-10-09T09:01:00.355Z,608.00
2022-10-09T09:02:00.434Z,608.00
2022-10-09T09:03:00.318Z,624.00
2022-10-09T09:04:00.287Z,640.00
2022-10-09T09:05:00.256Z,648.00
2022-10-09T09:06:00.232Z,644.00
2022-10-09T09:07:00.207Z,656.00
2022-10-09T09:08:00.202Z,652.00
2022-10-09T09:09:00.160Z,652.00
2022-10-09T09:10:00.151Z,664.00
2022-10-09T09:11:00.147Z,672.00
2022-10-09T09:12:00.097Z,692.00
2022-10-09T09:13:00.078Z,708.00
2022-10-09T09:14:00.037Z,740.00
2022-10-09T09:15:00.020Z,772.00
2022-10-09T09:16:00.041Z,796.00
2022-10-09T09:16:59.966Z,808.00
2022-10-09T09:17:59.941Z,788.00
2022-10-09T09:18:59.916Z,788.00
2022-10-09T09:19:59.894Z,792.00
2022-10-09T09:20:59.871Z,792.00
2022-10-09T09:21:59.844Z,772.00
2022-10-09T09:22:59.827Z,800.00
2022-10-09T09:23:59.800Z,828.00
2022-10-09T09:24:59.774Z,840.00
2022-10-09T09:25:59.747Z,836.00
2022-10-09T09:26:59.743Z,836.00
2022-10-09T09:27:59.702Z,956.00
2022-10-09T09:28:59.752Z,976.00
2022-10-09T09:29:59.648Z,1044.00
2022-10-09T09:30:59.720Z,1068.00
2022-10-09T09:31:59.600Z,1092.00
2022-10-09T09:32:59.584Z,1104.00
2022-10-09T09:33:59.552Z,1108.00
2022-10-09T09:34:59.531Z,1116.00
2022-10-09T09:35:59.507Z,1112.00
2022-10-09T09:36:59.489Z,1120.00
2022-10-09T09:37:59.464Z,1120.00
2022-10-09T09:40:59.396Z,1124.00
2022-10-09T09:41:59.365Z,1120.00
2022-10-09T09:43:04.095Z,1128.00
2022-10-09T09:43:59.317Z,1124.00
2022-10-09T09:44:59.293Z,1120.00
2022-10-09T09:45:59.268Z,1120.00
2022-10-09T09:46:59.292Z,1116.00
2022-10-09T09:47:59.222Z,1116.00
2022-10-09T09:48:59.200Z,1112.00
2022-10-09T09:49:59.181Z,1112.00
2022-10-09T09:51:10.163Z,1112.00
2022-10-09T09:51:59.127Z,1116.00
2022-10-09T09:52:59.108Z,1112.00
2022-10-09T09:53:59.083Z,1112.00
2022-10-09T09:54:59.056Z,1120.00
2022-10-09T09:55:59.034Z,1128.00
2022-10-09T09:57:19.508Z,1136.00
2022-10-09T09:57:58.992Z,1136.00
2022-10-09T09:58:58.988Z,1144.00
2022-10-09T09:59:58.943Z,1152.00
2022-10-09T10:00:58.973Z,1148.00
2022-10-09T10:01:58.976Z,1164.00
2022-10-09T10:02:58.863Z,1164.00
2022-10-09T10:03:58.844Z,1168.00
2022-10-09T10:04:58.820Z,1168.00
2022-10-09T10:05:58.796Z,1172.00
2022-10-09T10:06:58.773Z,1176.00
2022-10-09T10:07:58.747Z,1176.00
2022-10-09T10:08:58.730Z,1172.00
2022-10-09T10:09:58.702Z,1168.00
2022-10-09T10:10:58.678Z,1168.00
2022-10-09T10:11:58.659Z,1164.00
2022-10-09T10:12:58.635Z,1164.00
2022-10-09T10:13:58.609Z,1164.00
2022-10-09T10:14:58.633Z,1152.00
2022-10-09T10:15:58.676Z,1148.00
2022-10-09T10:16:58.535Z,1148.00
2022-10-09T10:17:58.513Z,1156.00
2022-10-09T10:18:58.490Z,1164.00
2022-10-09T10:19:58.469Z,1168.00
2022-10-09T10:20:58.445Z,1172.00
2022-10-09T10:21:58.418Z,1164.00
2022-10-09T10:22:58.393Z,1172.00
2022-10-09T10:23:58.443Z,1176.00
2022-10-09T10:24:58.353Z,1180.00
2022-10-09T10:25:58.327Z,1180.00
2022-10-09T10:26:58.305Z,1180.00
2022-10-09T10:27:58.277Z,1184.00
2022-10-09T10:28:58.258Z,1180.00
2022-10-09T10:29:58.234Z,1188.00
2022-10-09T10:30:58.299Z,1184.00
2022-10-09T10:31:58.190Z,1188.00
2022-10-09T10:32:58.169Z,1184.00
2022-10-09T10:33:58.142Z,1192.00
2022-10-09T10:34:58.119Z,1188.00
2022-10-09T10:35:58.095Z,1184.00
2022-10-09T10:37:02.491Z,1176.00
2022-10-09T10:37:58.046Z,1192.00
2022-10-09T10:38:58.025Z,1196.00
2022-10-09T10:39:58.003Z,1204.00
2022-10-09T10:40:57.983Z,1192.00
2022-10-09T10:41:57.956Z,1184.00
2022-10-09T10:42:59.421Z,1176.00
2022-10-09T10:43:57.914Z,1164.00
2022-10-09T10:44:57.894Z,1176.00
2022-10-09T10:45:57.861Z,1168.00
2022-10-09T10:46:57.897Z,1168.00
2022-10-09T10:47:57.818Z,1204.00
2022-10-09T10:48:57.798Z,1220.00
2022-10-09T10:49:57.770Z,1212.00
2022-10-09T10:50:57.750Z,1200.00
2022-10-09T10:51:57.728Z,1184.00
2022-10-09T10:52:57.705Z,1204.00
2022-10-09T10:53:57.682Z,1240.00
2022-10-09T10:54:57.660Z,1268.00
2022-10-09T10:56:01.321Z,1280.00
2022-10-09T10:56:57.614Z,1284.00
2022-10-09T10:57:57.589Z,1292.00
2022-10-09T10:58:57.563Z,1292.00
2022-10-09T10:59:57.545Z,1300.00
2022-10-09T11:00:57.569Z,1308.00
2022-10-09T11:01:57.499Z,1316.00
2022-10-09T11:02:57.582Z,1328.00
2022-10-09T11:03:57.457Z,1328.00
2022-10-09T11:04:57.429Z,1340.00
2022-10-09T11:05:57.408Z,1344.00
2022-10-09T11:06:57.382Z,1352.00
2022-10-09T11:08:00.091Z,1352.00
2022-10-09T11:08:57.337Z,1360.00
2022-10-09T11:09:57.315Z,1368.00
2022-10-09T11:10:57.290Z,1380.00
2022-10-09T11:11:57.269Z,1384.00
2022-10-09T11:12:57.242Z,1396.00
2022-10-09T11:13:57.224Z,1404.00
2022-10-09T11:14:57.201Z,1400.00
2022-10-09T11:15:57.225Z,1412.00
2022-10-09T11:16:57.167Z,1420.00
2022-10-09T11:17:57.133Z,1432.00
2022-10-09T11:18:57.129Z,1440.00
2022-10-09T11:19:57.086Z,1444.00
2022-10-09T11:20:57.068Z,1456.00
2022-10-09T11:21:57.037Z,1460.00
2022-10-09T11:22:57.020Z,1460.00
2022-10-09T11:23:56.998Z,1460.00
2022-10-09T11:24:56.972Z,1472.00
2022-10-09T11:25:56.956Z,1476.00
2022-10-09T11:27:02.305Z,1476.00
2022-10-09T11:27:56.907Z,1484.00
2022-10-09T11:28:56.883Z,1488.00
2022-10-09T11:29:56.856Z,1500.00
2022-10-09T11:30:56.836Z,1508.00
2022-10-09T11:31:56.865Z,1508.00
2022-10-09T11:32:56.797Z,1512.00
2022-10-09T11:33:56.772Z,1520.00
2022-10-09T11:34:56.776Z,1512.00
2022-10-09T11:35:56.729Z,1512.00
2022-10-09T11:36:56.706Z,1512.00
2022-10-09T11:37:56.685Z,1516.00
2022-10-09T11:38:56.661Z,1520.00
2022-10-09T11:39:56.635Z,1524.00
2022-10-09T11:40:56.614Z,1524.00
2022-10-09T11:41:56.590Z,1520.00
2022-10-09T11:42:56.570Z,1508.00
2022-10-09T11:43:56.543Z,1520.00
2022-10-09T11:44:56.522Z,1512.00
2022-10-09T11:45:56.583Z,1512.00
2022-10-09T11:47:00.272Z,1512.00
2022-10-09T11:47:56.457Z,1516.00
2022-10-09T11:48:56.435Z,1504.00
2022-10-09T11:49:56.410Z,1500.00
2022-10-09T11:50:56.411Z,1504.00
2022-10-09T11:51:56.371Z,1500.00
2022-10-09T11:52:56.352Z,1504.00
2022-10-09T11:53:56.324Z,1496.00
2022-10-09T11:54:56.301Z,1484.00
2022-10-09T11:55:56.279Z,1472.00
2022-10-09T11:56:56.261Z,1472.00
2022-10-09T11:57:56.232Z,1480.00
2022-10-09T11:58:56.215Z,1484.00
2022-10-09T11:59:56.185Z,1488.00
2022-10-09T12:00:56.265Z,1480.00
2022-10-09T12:01:56.168Z,1476.00
2022-10-09T12:02:56.117Z,1456.00
2022-10-09T12:03:59.985Z,1444.00
2022-10-09T12:04:56.091Z,1448.00
2022-10-09T12:05:56.052Z,1456.00
2022-10-09T12:06:56.108Z,1440.00
2022-10-09T12:07:56.007Z,1436.00
2022-10-09T12:08:55.989Z,1436.00
2022-10-09T12:09:55.963Z,1444.00
2022-10-09T12:10:55.945Z,1440.00
2022-10-09T12:11:55.923Z,1436.00
2022-10-09T12:12:55.901Z,1432.00
2022-10-09T12:13:55.875Z,1428.00
2022-10-09T12:14:55.852Z,1416.00
2022-10-09T12:15:55.834Z,1416.00
2022-10-09T12:16:55.914Z,1416.00
2022-10-09T12:17:55.785Z,1412.00
2022-10-09T12:18:55.767Z,1408.00
2022-10-09T12:20:00.774Z,1404.00
2022-10-09T12:20:55.723Z,1408.00
2022-10-09T12:21:55.695Z,1396.00
2022-10-09T12:23:14.381Z,1388.00
2022-10-09T12:23:55.656Z,1388.00
2022-10-09T12:24:55.630Z,1380.00
2022-10-09T12:25:55.610Z,1372.00
2022-10-09T12:26:55.587Z,1364.00
2022-10-09T12:27:55.561Z,1360.00
2022-10-09T12:28:55.545Z,1352.00
2022-10-09T12:29:55.522Z,1344.00
2022-10-09T12:30:55.540Z,1336.00
2022-10-09T12:31:55.479Z,1340.00
2022-10-09T12:32:55.461Z,1336.00
2022-10-09T12:33:55.432Z,1328.00
2022-10-09T12:34:55.411Z,1332.00
2022-10-09T12:35:55.388Z,1316.00
2022-10-09T12:36:55.364Z,1320.00
2022-10-09T12:37:55.341Z,1308.00
2022-10-09T12:38:55.341Z,1312.00
2022-10-09T12:39:55.296Z,1308.00
2022-10-09T12:40:55.278Z,1308.00
2022-10-09T12:41:55.257Z,1296.00
2022-10-09T12:42:55.233Z,1284.00
2022-10-09T12:43:55.214Z,1284.00
2022-10-09T12:44:55.193Z,1284.00
2022-10-09T12:45:55.252Z,1276.00
2022-10-09T12:46:55.153Z,1240.00